Time,TemperatureF,DewpointF,PressureIn,WindDirection,WindDirectionDegrees,WindSpeedMPH,WindSpeedGustMPH,Humidity,HourlyPrecipIn,Conditions,Clouds,dailyrainin,SolarRadiationWatts/m^2,SoftwareType,DateUTC
2013-02-19 02:00:00,35.0,35.0,-100.00,WSW,247,13.0,-999.0,98,0.06,,,-99.99,0.000000,,2013-02-19 07:00:00,
2013-02-19 02:42:00,35.0,35.0,-100.00,WSW,247,13.0,-999.0,98,0.06,,,-99.99,0.000000,,2013-02-19 07:42:00,
2013-02-19 02:52:00,35.0,35.0,-100.00,WSW,247,13.0,-999.0,98,0.06,,,-99.99,0.000000,,2013-02-19 07:52:00,
2013-02-19 03:00:00,34.0,33.0,-100.00,WSW,247,14.0,-999.0,96,0.01,,,-99.99,0.000000,,2013-02-19 08:00:00,
2013-02-19 03:42:00,34.0,33.0,-100.00,WSW,247,14.0,-999.0,96,0.01,,,-99.99,0.000000,,2013-02-19 08:42:00,
2013-02-19 03:52:00,34.0,33.0,-100.00,WSW,247,14.0,-999.0,96,0.01,,,-99.99,0.000000,,2013-02-19 08:52:00,
2013-02-19 04:00:00,31.0,29.0,-100.00,WSW,247,14.0,-999.0,92,-99.99,,,-99.99,0.000000,,2013-02-19 09:00:00,
2013-02-19 04:42:00,31.0,29.0,-100.00,WSW,247,14.0,-999.0,92,-99.99,,,-99.99,0.000000,,2013-02-19 09:42:00,
2013-02-19 04:53:00,31.0,29.0,-100.00,WSW,247,14.0,-999.0,92,-99.99,,,-99.99,0.000000,,2013-02-19 09:53:00,
2013-02-19 06:00:00,26.0,23.0,-100.00,WSW,247,15.0,-999.0,89,-99.99,,,-99.99,0.000000,,2013-02-19 11:00:00,
2013-02-19 06:42:00,26.0,23.0,-100.00,WSW,247,15.0,-999.0,89,-99.99,,,-99.99,0.000000,,2013-02-19 11:42:00,
2013-02-19 06:52:00,26.0,23.0,-100.00,WSW,247,15.0,-999.0,89,-99.99,,,-99.99,0.000000,,2013-02-19 11:52:00,
2013-02-19 07:00:00,24.0,21.0,-100.00,WSW,247,14.0,-999.0,89,-99.99,,,-99.99,0.000000,,2013-02-19 12:00:00,
2013-02-19 07:42:00,24.0,21.0,-100.00,WSW,247,14.0,-999.0,89,-99.99,,,-99.99,0.000000,,2013-02-19 12:42:00,
2013-02-19 07:52:00,24.0,21.0,-100.00,WSW,247,14.0,-999.0,89,-99.99,,,-99.99,0.000000,,2013-02-19 12:52:00,
2013-02-19 09:00:00,20.0,18.0,-100.00,SW,225,11.0,-999.0,94,-99.99,,,-99.99,22.040001,,2013-02-19 14:00:00,
2013-02-19 09:42:00,20.0,18.0,-100.00,SW,225,11.0,-999.0,94,-99.99,,,-99.99,22.040001,,2013-02-19 14:42:00,
2013-02-19 09:52:00,20.0,18.0,-100.00,SW,225,11.0,-999.0,94,-99.99,,,-99.99,22.040001,,2013-02-19 14:52:00,
2013-02-19 10:00:00,18.0,17.0,-100.00,SW,225,11.0,-999.0,96,-99.99,,,-99.99,90.480003,,2013-02-19 15:00:00,
2013-02-19 10:42:00,18.0,17.0,-100.00,SW,225,11.0,-999.0,96,-99.99,,,-99.99,90.480003,,2013-02-19 15:42:00,
2013-02-19 10:52:00,18.0,17.0,-100.00,SW,225,11.0,-999.0,96,-99.99,,,-99.99,90.480003,,2013-02-19 15:52:00,
2013-02-19 11:00:00,18.0,17.0,-100.00,WSW,247,13.0,-999.0,95,-99.99,,,-99.99,255.199997,,2013-02-19 16:00:00,
2013-02-19 11:42:00,18.0,17.0,-100.00,WSW,247,13.0,-999.0,95,-99.99,,,-99.99,255.199997,,2013-02-19 16:42:00,
2013-02-19 11:52:00,18.0,17.0,-100.00,WSW,247,13.0,-999.0,95,-99.99,,,-99.99,255.199997,,2013-02-19 16:52:00,
2013-02-19 12:00:00,17.0,16.0,-100.00,WSW,247,14.0,-999.0,93,-99.99,,,-99.99,334.079987,,2013-02-19 17:00:00,
2013-02-19 12:42:00,17.0,16.0,-100.00,WSW,247,14.0,-999.0,93,-99.99,,,-99.99,334.079987,,2013-02-19 17:42:00,
2013-02-19 12:52:00,17.0,16.0,-100.00,WSW,247,14.0,-999.0,93,-99.99,,,-99.99,334.079987,,2013-02-19 17:52:00,
2013-02-19 14:00:00,16.0,14.0,-100.00,WSW,247,14.0,-999.0,90,-99.99,,,-99.99,262.160004,,2013-02-19 19:00:00,
2013-02-19 14:42:00,16.0,14.0,-100.00,WSW,247,14.0,-999.0,90,-99.99,,,-99.99,262.160004,,2013-02-19 19:42:00,
2013-02-19 14:52:00,16.0,14.0,-100.00,WSW,247,14.0,-999.0,90,-99.99,,,-99.99,262.160004,,2013-02-19 19:52:00,
2013-02-19 15:00:00,16.0,13.0,-100.00,WSW,247,11.0,-999.0,86,-99.99,,,-99.99,155.440002,,2013-02-19 20:00:00,
2013-02-19 15:42:00,16.0,13.0,-100.00,WSW,247,11.0,-999.0,86,-99.99,,,-99.99,155.440002,,2013-02-19 20:42:00,
2013-02-19 15:52:00,16.0,13.0,-100.00,WSW,247,11.0,-999.0,86,-99.99,,,-99.99,155.440002,,2013-02-19 20:52:00,
2013-02-19 16:00:00,16.0,13.0,-100.00,WSW,247,12.0,-999.0,87,-99.99,,,-99.99,114.839996,,2013-02-19 21:00:00,
2013-02-19 16:42:00,16.0,13.0,-100.00,WSW,247,12.0,-999.0,87,-99.99,,,-99.99,114.839996,,2013-02-19 21:42:00,
2013-02-19 16:52:00,16.0,13.0,-100.00,WSW,247,12.0,-999.0,87,-99.99,,,-99.99,114.839996,,2013-02-19 21:52:00,
2013-02-19 17:00:00,16.0,13.0,-100.00,WSW,247,13.0,-999.0,89,-99.99,,,-99.99,60.320000,,2013-02-19 22:00:00,
2013-02-19 17:42:00,16.0,13.0,-100.00,WSW,247,13.0,-999.0,89,-99.99,,,-99.99,60.320000,,2013-02-19 22:42:00,
2013-02-19 17:52:00,16.0,13.0,-100.00,WSW,247,13.0,-999.0,89,-99.99,,,-99.99,60.320000,,2013-02-19 22:52:00,
2013-02-19 18:00:00,16.0,14.0,-100.00,WSW,247,11.0,-999.0,92,-99.99,,,-99.99,17.400000,,2013-02-19 23:00:00,
2013-02-19 18:42:00,16.0,14.0,-100.00,WSW,247,11.0,-999.0,92,-99.99,,,-99.99,17.400000,,2013-02-19 23:42:00,
2013-02-19 18:52:00,16.0,14.0,-100.00,WSW,247,11.0,-999.0,92,-99.99,,,-99.99,17.400000,,2013-02-19 23:52:00,
2013-02-19 19:00:00,16.0,14.0,-100.00,WSW,247,10.0,-999.0,93,-99.99,,,-99.99,2.320000,,2013-02-20 00:00:00,
2013-02-19 19:42:00,16.0,14.0,-100.00,WSW,247,10.0,-999.0,93,-99.99,,,-99.99,2.320000,,2013-02-20 00:42:00,
2013-02-19 19:52:00,16.0,14.0,-100.00,WSW,247,10.0,-999.0,93,-99.99,,,-99.99,2.320000,,2013-02-20 00:52:00,
2013-02-19 20:00:00,16.0,14.0,-100.00,WSW,247,10.0,-999.0,91,-99.99,,,-99.99,0.000000,,2013-02-20 01:00:00,
2013-02-19 20:42:00,16.0,14.0,-100.00,WSW,247,10.0,-999.0,91,-99.99,,,-99.99,0.000000,,2013-02-20 01:42:00,
2013-02-19 20:52:00,16.0,14.0,-100.00,WSW,247,10.0,-999.0,91,-99.99,,,-99.99,0.000000,,2013-02-20 01:52:00,
2013-02-19 21:00:00,16.0,15.0,-100.00,West,270,10.0,-999.0,94,-99.99,,,-99.99,0.000000,,2013-02-20 02:00:00,
2013-02-19 21:42:00,16.0,15.0,-100.00,West,270,10.0,-999.0,94,-99.99,,,-99.99,0.000000,,2013-02-20 02:42:00,
2013-02-19 21:52:00,16.0,15.0,-100.00,West,270,10.0,-999.0,94,-99.99,,,-99.99,0.000000,,2013-02-20 02:52:00,
2013-02-19 22:00:00,16.0,12.0,-100.00,West,270,14.0,-999.0,84,-99.99,,,-99.99,0.000000,,2013-02-20 03:00:00,
2013-02-19 22:42:00,16.0,12.0,-100.00,West,270,14.0,-999.0,84,-99.99,,,-99.99,0.000000,,2013-02-20 03:42:00,
2013-02-19 22:52:00,16.0,12.0,-100.00,West,270,14.0,-999.0,84,-99.99,,,-99.99,0.000000,,2013-02-20 03:52:00,
2013-02-19 23:00:00,16.0,12.0,-100.00,West,270,12.0,-999.0,85,-99.99,,,-99.99,0.000000,,2013-02-20 04:00:00,
2013-02-19 23:42:00,16.0,12.0,-100.00,West,270,12.0,-999.0,85,-99.99,,,-99.99,0.000000,,2013-02-20 04:42:00,
2013-02-19 23:52:00,16.0,12.0,-100.00,West,270,12.0,-999.0,85,-99.99,,,-99.99,0.000000,,2013-02-20 04:52:00,